sensor_id;sensor_type;location;lat;lon;timestamp;P1;durP1;ratioP1;P2;durP2;ratioP2
13173;SDS011;6652;48.802;9.190;2023-10-13T00:00:48;16.30;;;6.50;;
13173;SDS011;6652;48.802;9.190;2023-10-13T00:03:22;16.98;;;6.10;;
13173;SDS011;6652;48.802;9.190;2023-10-13T00:05:50;10.02;;;5.22;;
13173;SDS011;6652;48.802;9.190;2023-10-13T00:08:18;14.60;;;5.30;;
13173;SDS011;6652;48.802;9.190;2023-10-13T00:10:45;17.45;;;5.15;;
13173;SDS011;6652;48.802;9.190;2023-10-13T00:13:12;9.57;;;4.85;;
13173;SDS011;6652;48.802;9.190;2023-10-13T00:15:41;14.60;;;5.22;;
13173;SDS011;6652;48.802;9.190;2023-10-13T00:18:21;9.90;;;4.50;;
13173;SDS011;6652;48.802;9.190;2023-10-13T00:20:48;14.00;;;4.45;;
13173;SDS011;6652;48.802;9.190;2023-10-13T00:23:15;10.75;;;4.30;;
13173;SDS011;6652;48.802;9.190;2023-10-13T00:25:46;11.13;;;4.50;;
13173;SDS011;6652;48.802;9.190;2023-10-13T00:28:21;9.88;;;4.43;;
13173;SDS011;6652;48.802;9.190;2023-10-13T00:30:50;15.07;;;4.45;;
13173;SDS011;6652;48.802;9.190;2023-10-13T00:33:17;10.77;;;4.00;;
13173;SDS011;6652;48.802;9.190;2023-10-13T00:35:49;16.20;;;4.18;;
13173;SDS011;6652;48.802;9.190;2023-10-13T00:38:16;10.43;;;4.38;;
13173;SDS011;6652;48.802;9.190;2023-10-13T00:40:45;12.82;;;4.25;;
13173;SDS011;6652;48.802;9.190;2023-10-13T00:43:17;9.82;;;4.07;;
13173;SDS011;6652;48.802;9.190;2023-10-13T00:46:05;13.15;;;3.92;;
13173;SDS011;6652;48.802;9.190;2023-10-13T00:48:33;9.80;;;4.05;;
13173;SDS011;6652;48.802;9.190;2023-10-13T00:51:09;10.23;;;3.25;;
13173;SDS011;6652;48.802;9.190;2023-10-13T00:53:44;9.30;;;3.97;;
13173;SDS011;6652;48.802;9.190;2023-10-13T00:56:13;10.23;;;3.92;;
13173;SDS011;6652;48.802;9.190;2023-10-13T00:58:52;13.52;;;3.42;;
13173;SDS011;6652;48.802;9.190;2023-10-13T01:01:22;11.82;;;3.65;;
13173;SDS011;6652;48.802;9.190;2023-10-13T01:03:54;11.88;;;3.58;;
13173;SDS011;6652;48.802;9.190;2023-10-13T01:06:26;14.48;;;3.58;;
13173;SDS011;6652;48.802;9.190;2023-10-13T01:08:56;15.07;;;3.65;;
13173;SDS011;6652;48.802;9.190;2023-10-13T01:11:24;10.88;;;3.60;;
13173;SDS011;6652;48.802;9.190;2023-10-13T01:13:54;10.68;;;3.78;;
13173;SDS011;6652;48.802;9.190;2023-10-13T01:16:22;9.40;;;4.35;;
13173;SDS011;6652;48.802;9.190;2023-10-13T01:18:51;9.07;;;4.95;;
13173;SDS011;6652;48.802;9.190;2023-10-13T01:21:18;16.85;;;4.75;;
13173;SDS011;6652;48.802;9.190;2023-10-13T01:23:47;22.15;;;6.05;;
13173;SDS011;6652;48.802;9.190;2023-10-13T01:26:16;20.80;;;5.97;;
13173;SDS011;6652;48.802;9.190;2023-10-13T01:28:46;18.35;;;5.63;;
13173;SDS011;6652;48.802;9.190;2023-10-13T01:31:13;18.13;;;5.60;;
13173;SDS011;6652;48.802;9.190;2023-10-13T01:33:59;13.50;;;5.28;;
13173;SDS011;6652;48.802;9.190;2023-10-13T01:36:26;13.75;;;5.03;;
13173;SDS011;6652;48.802;9.190;2023-10-13T01:38:54;12.15;;;5.18;;
13173;SDS011;6652;48.802;9.190;2023-10-13T01:41:21;13.52;;;4.63;;
13173;SDS011;6652;48.802;9.190;2023-10-13T01:43:47;20.40;;;5.13;;
13173;SDS011;6652;48.802;9.190;2023-10-13T01:46:14;12.85;;;5.00;;
13173;SDS011;6652;48.802;9.190;2023-10-13T01:48:41;10.07;;;4.50;;
13173;SDS011;6652;48.802;9.190;2023-10-13T01:51:09;10.45;;;4.85;;
13173;SDS011;6652;48.802;9.190;2023-10-13T01:53:35;9.73;;;4.15;;
13173;SDS011;6652;48.802;9.190;2023-10-13T01:56:05;18.17;;;4.30;;
13173;SDS011;6652;48.802;9.190;2023-10-13T01:58:35;14.75;;;4.55;;
13173;SDS011;6652;48.802;9.190;2023-10-13T02:01:06;14.23;;;4.47;;
13173;SDS011;6652;48.802;9.190;2023-10-13T02:03:32;13.77;;;4.30;;
13173;SDS011;6652;48.802;9.190;2023-10-13T02:06:01;16.85;;;4.57;;
13173;SDS011;6652;48.802;9.190;2023-10-13T02:08:29;14.38;;;4.63;;
13173;SDS011;6652;48.802;9.190;2023-10-13T02:10:57;17.98;;;5.35;;
13173;SDS011;6652;48.802;9.190;2023-10-13T02:13:25;13.80;;;4.30;;
13173;SDS011;6652;48.802;9.190;2023-10-13T02:15:53;17.02;;;5.15;;
13173;SDS011;6652;48.802;9.190;2023-10-13T02:18:21;8.55;;;4.07;;
13173;SDS011;6652;48.802;9.190;2023-10-13T02:20:52;10.43;;;4.20;;
13173;SDS011;6652;48.802;9.190;2023-10-13T02:23:20;16.77;;;5.03;;
13173;SDS011;6652;48.802;9.190;2023-10-13T02:25:48;11.93;;;4.47;;
13173;SDS011;6652;48.802;9.190;2023-10-13T02:28:17;14.05;;;3.88;;
13173;SDS011;6652;48.802;9.190;2023-10-13T02:30:54;14.07;;;4.30;;
13173;SDS011;6652;48.802;9.190;2023-10-13T02:33:22;8.40;;;4.40;;
13173;SDS011;6652;48.802;9.190;2023-10-13T02:35:54;7.70;;;3.47;;
13173;SDS011;6652;48.802;9.190;2023-10-13T02:38:21;16.73;;;4.93;;
13173;SDS011;6652;48.802;9.190;2023-10-13T02:40:58;13.93;;;4.97;;
13173;SDS011;6652;48.802;9.190;2023-10-13T02:43:30;11.32;;;4.82;;
13173;SDS011;6652;48.802;9.190;2023-10-13T02:46:01;13.10;;;3.97;;
13173;SDS011;6652;48.802;9.190;2023-10-13T02:48:29;12.02;;;4.40;;
13173;SDS011;6652;48.802;9.190;2023-10-13T02:51:05;8.18;;;3.85;;
13173;SDS011;6652;48.802;9.190;2023-10-13T02:53:40;16.92;;;4.47;;
13173;SDS011;6652;48.802;9.190;2023-10-13T02:56:06;9.40;;;4.47;;
13173;SDS011;6652;48.802;9.190;2023-10-13T02:58:34;13.23;;;5.05;;
13173;SDS011;6652;48.802;9.190;2023-10-13T03:01:10;10.15;;;4.25;;
13173;SDS011;6652;48.802;9.190;2023-10-13T03:03:44;15.15;;;5.05;;
13173;SDS011;6652;48.802;9.190;2023-10-13T03:06:16;8.88;;;4.72;;
13173;SDS011;6652;48.802;9.190;2023-10-13T03:08:46;12.95;;;5.00;;
13173;SDS011;6652;48.802;9.190;2023-10-13T03:11:12;11.85;;;4.03;;
13173;SDS011;6652;48.802;9.190;2023-10-13T03:13:41;15.50;;;4.28;;
13173;SDS011;6652;48.802;9.190;2023-10-13T03:16:17;12.73;;;4.68;;
13173;SDS011;6652;48.802;9.190;2023-10-13T03:18:45;16.15;;;4.35;;
13173;SDS011;6652;48.802;9.190;2023-10-13T03:21:19;9.02;;;3.75;;
13173;SDS011;6652;48.802;9.190;2023-10-13T03:23:55;18.88;;;4.00;;
13173;SDS011;6652;48.802;9.190;2023-10-13T03:26:23;10.85;;;3.80;;
13173;SDS011;6652;48.802;9.190;2023-10-13T03:28:50;16.30;;;3.88;;
13173;SDS011;6652;48.802;9.190;2023-10-13T03:31:19;16.65;;;4.55;;
13173;SDS011;6652;48.802;9.190;2023-10-13T03:33:52;16.08;;;4.40;;
13173;SDS011;6652;48.802;9.190;2023-10-13T03:36:24;14.03;;;4.27;;
13173;SDS011;6652;48.802;9.190;2023-10-13T03:39:09;19.67;;;4.38;;
13173;SDS011;6652;48.802;9.190;2023-10-13T03:41:36;11.05;;;4.07;;
13173;SDS011;6652;48.802;9.190;2023-10-13T03:44:05;14.60;;;3.55;;
13173;SDS011;6652;48.802;9.190;2023-10-13T03:46:39;14.18;;;4.03;;
13173;SDS011;6652;48.802;9.190;2023-10-13T03:49:07;12.23;;;4.45;;
13173;SDS011;6652;48.802;9.190;2023-10-13T03:51:38;14.15;;;4.13;;
13173;SDS011;6652;48.802;9.190;2023-10-13T03:54:05;10.07;;;4.20;;
13173;SDS011;6652;48.802;9.190;2023-10-13T03:56:33;9.88;;;5.28;;
13173;SDS011;6652;48.802;9.190;2023-10-13T03:59:05;15.88;;;4.80;;
13173;SDS011;6652;48.802;9.190;2023-10-13T04:01:35;12.10;;;4.88;;
13173;SDS011;6652;48.802;9.190;2023-10-13T04:04:12;19.92;;;6.25;;
13173;SDS011;6652;48.802;9.190;2023-10-13T04:06:41;10.63;;;4.00;;
13173;SDS011;6652;48.802;9.190;2023-10-13T04:09:17;10.43;;;4.35;;
13173;SDS011;6652;48.802;9.190;2023-10-13T04:12:03;11.50;;;4.25;;
13173;SDS011;6652;48.802;9.190;2023-10-13T04:15:09;13.88;;;4.53;;
13173;SDS011;6652;48.802;9.190;2023-10-13T04:17:46;13.15;;;4.22;;
13173;SDS011;6652;48.802;9.190;2023-10-13T04:20:17;11.43;;;3.72;;
13173;SDS011;6652;48.802;9.190;2023-10-13T04:22:58;13.38;;;4.38;;
13173;SDS011;6652;48.802;9.190;2023-10-13T04:25:44;14.45;;;5.68;;
13173;SDS011;6652;48.802;9.190;2023-10-13T04:28:29;12.82;;;5.45;;
13173;SDS011;6652;48.802;9.190;2023-10-13T04:31:15;16.60;;;7.57;;
13173;SDS011;6652;48.802;9.190;2023-10-13T04:33:50;20.05;;;9.15;;
13173;SDS011;6652;48.802;9.190;2023-10-13T04:36:28;23.75;;;9.30;;
13173;SDS011;6652;48.802;9.190;2023-10-13T04:39:10;20.42;;;8.88;;
13173;SDS011;6652;48.802;9.190;2023-10-13T04:41:42;26.60;;;9.48;;
13173;SDS011;6652;48.802;9.190;2023-10-13T04:44:23;24.67;;;9.48;;
13173;SDS011;6652;48.802;9.190;2023-10-13T04:47:04;27.77;;;10.38;;
13173;SDS011;6652;48.802;9.190;2023-10-13T04:49:46;21.77;;;9.63;;
13173;SDS011;6652;48.802;9.190;2023-10-13T04:52:16;29.10;;;9.73;;
13173;SDS011;6652;48.802;9.190;2023-10-13T04:55:01;25.85;;;9.18;;
13173;SDS011;6652;48.802;9.190;2023-10-13T04:57:42;20.30;;;9.85;;
13173;SDS011;6652;48.802;9.190;2023-10-13T05:00:12;20.40;;;8.90;;
13173;SDS011;6652;48.802;9.190;2023-10-13T05:02:57;30.60;;;10.18;;
13173;SDS011;6652;48.802;9.190;2023-10-13T05:05:42;25.45;;;10.00;;
13173;SDS011;6652;48.802;9.190;2023-10-13T05:08:20;21.85;;;9.18;;
13173;SDS011;6652;48.802;9.190;2023-10-13T05:11:04;24.50;;;9.60;;
13173;SDS011;6652;48.802;9.190;2023-10-13T05:13:52;27.83;;;8.95;;
13173;SDS011;6652;48.802;9.190;2023-10-13T05:16:36;16.67;;;7.10;;
13173;SDS011;6652;48.802;9.190;2023-10-13T05:19:20;16.23;;;6.50;;
13173;SDS011;6652;48.802;9.190;2023-10-13T05:22:04;20.20;;;8.88;;
13173;SDS011;6652;48.802;9.190;2023-10-13T05:24:50;18.17;;;7.13;;
13173;SDS011;6652;48.802;9.190;2023-10-13T05:27:34;17.08;;;6.90;;
13173;SDS011;6652;48.802;9.190;2023-10-13T05:30:18;16.23;;;5.40;;
13173;SDS011;6652;48.802;9.190;2023-10-13T05:33:03;17.30;;;5.43;;
13173;SDS011;6652;48.802;9.190;2023-10-13T05:35:48;18.15;;;6.05;;
13173;SDS011;6652;48.802;9.190;2023-10-13T05:38:32;12.73;;;5.47;;
13173;SDS011;6652;48.802;9.190;2023-10-13T05:41:17;16.83;;;5.10;;
13173;SDS011;6652;48.802;9.190;2023-10-13T05:44:02;18.33;;;5.43;;
13173;SDS011;6652;48.802;9.190;2023-10-13T05:46:46;16.63;;;5.82;;
13173;SDS011;6652;48.802;9.190;2023-10-13T05:49:36;16.63;;;4.63;;
13173;SDS011;6652;48.802;9.190;2023-10-13T05:52:15;13.13;;;4.63;;
13173;SDS011;6652;48.802;9.190;2023-10-13T05:55:05;21.27;;;4.55;;
13173;SDS011;6652;48.802;9.190;2023-10-13T05:57:51;10.70;;;5.00;;
13173;SDS011;6652;48.802;9.190;2023-10-13T06:00:38;11.68;;;4.60;;
13173;SDS011;6652;48.802;9.190;2023-10-13T06:03:24;24.50;;;7.63;;
13173;SDS011;6652;48.802;9.190;2023-10-13T06:06:08;23.23;;;8.07;;
13173;SDS011;6652;48.802;9.190;2023-10-13T06:08:53;20.77;;;7.70;;
13173;SDS011;6652;48.802;9.190;2023-10-13T06:11:37;23.42;;;8.20;;
13173;SDS011;6652;48.802;9.190;2023-10-13T06:14:23;32.70;;;9.25;;
13173;SDS011;6652;48.802;9.190;2023-10-13T06:17:22;26.92;;;9.80;;
13173;SDS011;6652;48.802;9.190;2023-10-13T06:20:07;27.83;;;10.10;;
13173;SDS011;6652;48.802;9.190;2023-10-13T06:22:52;44.00;;;10.55;;
13173;SDS011;6652;48.802;9.190;2023-10-13T06:25:37;20.77;;;8.77;;
13173;SDS011;6652;48.802;9.190;2023-10-13T06:28:21;25.20;;;9.65;;
13173;SDS011;6652;48.802;9.190;2023-10-13T06:31:07;26.63;;;9.15;;
13173;SDS011;6652;48.802;9.190;2023-10-13T06:33:38;24.30;;;8.93;;
13173;SDS011;6652;48.802;9.190;2023-10-13T06:36:10;33.23;;;8.17;;
13173;SDS011;6652;48.802;9.190;2023-10-13T06:38:37;24.15;;;8.55;;
13173;SDS011;6652;48.802;9.190;2023-10-13T06:41:04;37.15;;;8.35;;
13173;SDS011;6652;48.802;9.190;2023-10-13T06:43:32;23.00;;;7.68;;
13173;SDS011;6652;48.802;9.190;2023-10-13T06:46:04;32.72;;;8.60;;
13173;SDS011;6652;48.802;9.190;2023-10-13T06:48:39;30.50;;;8.68;;
13173;SDS011;6652;48.802;9.190;2023-10-13T06:51:07;17.75;;;7.28;;
13173;SDS011;6652;48.802;9.190;2023-10-13T06:53:43;24.92;;;7.28;;
13173;SDS011;6652;48.802;9.190;2023-10-13T06:56:12;21.40;;;7.28;;
13173;SDS011;6652;48.802;9.190;2023-10-13T06:58:47;23.42;;;6.97;;
13173;SDS011;6652;48.802;9.190;2023-10-13T07:01:16;24.23;;;6.53;;
13173;SDS011;6652;48.802;9.190;2023-10-13T07:03:48;22.70;;;6.90;;
13173;SDS011;6652;48.802;9.190;2023-10-13T07:06:18;18.42;;;7.22;;
13173;SDS011;6652;48.802;9.190;2023-10-13T07:08:45;28.40;;;7.07;;
13173;SDS011;6652;48.802;9.190;2023-10-13T07:11:17;31.02;;;8.05;;
13173;SDS011;6652;48.802;9.190;2023-10-13T07:13:48;30.55;;;7.85;;
13173;SDS011;6652;48.802;9.190;2023-10-13T07:16:18;22.55;;;6.88;;
13173;SDS011;6652;48.802;9.190;2023-10-13T07:18:45;29.48;;;8.40;;
13173;SDS011;6652;48.802;9.190;2023-10-13T07:21:18;19.00;;;6.40;;
13173;SDS011;6652;48.802;9.190;2023-10-13T07:23:49;25.48;;;5.78;;
13173;SDS011;6652;48.802;9.190;2023-10-13T07:26:26;16.02;;;4.95;;
13173;SDS011;6652;48.802;9.190;2023-10-13T07:28:55;19.70;;;5.82;;
13173;SDS011;6652;48.802;9.190;2023-10-13T07:31:24;29.02;;;5.03;;
13173;SDS011;6652;48.802;9.190;2023-10-13T07:33:52;29.63;;;5.03;;
13173;SDS011;6652;48.802;9.190;2023-10-13T07:36:29;23.23;;;5.35;;
13173;SDS011;6652;48.802;9.190;2023-10-13T07:39:04;21.90;;;4.80;;
13173;SDS011;6652;48.802;9.190;2023-10-13T07:41:47;28.65;;;5.72;;
13173;SDS011;6652;48.802;9.190;2023-10-13T07:44:20;15.00;;;5.20;;
13173;SDS011;6652;48.802;9.190;2023-10-13T07:46:53;18.70;;;5.35;;
13173;SDS011;6652;48.802;9.190;2023-10-13T07:49:28;15.40;;;4.53;;
13173;SDS011;6652;48.802;9.190;2023-10-13T07:52:01;15.82;;;5.30;;
13173;SDS011;6652;48.802;9.190;2023-10-13T07:54:41;17.50;;;5.03;;
13173;SDS011;6652;48.802;9.190;2023-10-13T07:57:09;19.25;;;5.22;;
13173;SDS011;6652;48.802;9.190;2023-10-13T07:59:39;15.80;;;5.53;;
13173;SDS011;6652;48.802;9.190;2023-10-13T08:02:18;12.60;;;4.90;;
13173;SDS011;6652;48.802;9.190;2023-10-13T08:05:14;14.52;;;4.70;;
13173;SDS011;6652;48.802;9.190;2023-10-13T08:07:49;14.18;;;4.90;;
13173;SDS011;6652;48.802;9.190;2023-10-13T08:10:17;21.67;;;4.82;;
13173;SDS011;6652;48.802;9.190;2023-10-13T08:12:50;18.58;;;4.97;;
13173;SDS011;6652;48.802;9.190;2023-10-13T08:15:17;13.38;;;4.60;;
13173;SDS011;6652;48.802;9.190;2023-10-13T08:17:56;19.35;;;4.97;;
13173;SDS011;6652;48.802;9.190;2023-10-13T08:20:29;12.10;;;4.00;;
13173;SDS011;6652;48.802;9.190;2023-10-13T08:23:03;21.63;;;4.57;;
13173;SDS011;6652;48.802;9.190;2023-10-13T08:25:39;16.05;;;5.20;;
13173;SDS011;6652;48.802;9.190;2023-10-13T08:28:20;19.73;;;5.32;;
13173;SDS011;6652;48.802;9.190;2023-10-13T08:31:04;12.57;;;4.97;;
13173;SDS011;6652;48.802;9.190;2023-10-13T08:33:47;14.40;;;4.85;;
13173;SDS011;6652;48.802;9.190;2023-10-13T08:36:15;21.63;;;4.95;;
13173;SDS011;6652;48.802;9.190;2023-10-13T08:38:53;27.60;;;5.88;;
13173;SDS011;6652;48.802;9.190;2023-10-13T08:41:21;15.40;;;4.10;;
13173;SDS011;6652;48.802;9.190;2023-10-13T08:43:54;14.82;;;4.57;;
13173;SDS011;6652;48.802;9.190;2023-10-13T08:46:29;13.52;;;4.45;;
13173;SDS011;6652;48.802;9.190;2023-10-13T08:49:17;13.38;;;4.68;;
13173;SDS011;6652;48.802;9.190;2023-10-13T08:51:52;18.48;;;4.65;;
13173;SDS011;6652;48.802;9.190;2023-10-13T08:54:32;26.67;;;5.18;;
13173;SDS011;6652;48.802;9.190;2023-10-13T08:57:04;25.73;;;5.40;;
13173;SDS011;6652;48.802;9.190;2023-10-13T08:59:45;14.70;;;5.00;;
13173;SDS011;6652;48.802;9.190;2023-10-13T09:02:18;16.27;;;4.50;;
13173;SDS011;6652;48.802;9.190;2023-10-13T09:05:08;22.30;;;4.00;;
13173;SDS011;6652;48.802;9.190;2023-10-13T09:07:57;16.35;;;3.85;;
13173;SDS011;6652;48.802;9.190;2023-10-13T09:10:34;14.25;;;4.20;;
13173;SDS011;6652;48.802;9.190;2023-10-13T09:13:09;10.18;;;4.00;;
13173;SDS011;6652;48.802;9.190;2023-10-13T09:15:44;22.50;;;4.15;;
13173;SDS011;6652;48.802;9.190;2023-10-13T09:18:26;11.95;;;3.53;;
13173;SDS011;6652;48.802;9.190;2023-10-13T09:21:07;15.90;;;4.07;;
13173;SDS011;6652;48.802;9.190;2023-10-13T09:23:58;6.82;;;3.15;;
13173;SDS011;6652;48.802;9.190;2023-10-13T09:26:42;18.23;;;4.10;;
13173;SDS011;6652;48.802;9.190;2023-10-13T09:29:19;14.65;;;3.90;;
13173;SDS011;6652;48.802;9.190;2023-10-13T09:31:57;20.85;;;3.58;;
13173;SDS011;6652;48.802;9.190;2023-10-13T09:34:26;20.55;;;3.35;;
13173;SDS011;6652;48.802;9.190;2023-10-13T09:36:56;15.07;;;3.80;;
13173;SDS011;6652;48.802;9.190;2023-10-13T09:39:25;14.60;;;4.18;;
13173;SDS011;6652;48.802;9.190;2023-10-13T09:42:09;9.55;;;3.72;;
13173;SDS011;6652;48.802;9.190;2023-10-13T09:44:37;10.73;;;3.78;;
13173;SDS011;6652;48.802;9.190;2023-10-13T09:47:05;10.70;;;3.17;;
13173;SDS011;6652;48.802;9.190;2023-10-13T09:49:43;11.18;;;3.40;;
13173;SDS011;6652;48.802;9.190;2023-10-13T09:52:11;11.48;;;3.95;;
13173;SDS011;6652;48.802;9.190;2023-10-13T09:54:46;28.65;;;6.47;;
13173;SDS011;6652;48.802;9.190;2023-10-13T09:57:26;16.25;;;4.43;;
13173;SDS011;6652;48.802;9.190;2023-10-13T10:00:15;29.48;;;4.65;;
13173;SDS011;6652;48.802;9.190;2023-10-13T10:03:14;11.45;;;3.38;;
13173;SDS011;6652;48.802;9.190;2023-10-13T10:05:57;7.82;;;3.15;;
13173;SDS011;6652;48.802;9.190;2023-10-13T10:08:31;13.15;;;3.47;;
13173;SDS011;6652;48.802;9.190;2023-10-13T10:14:03;16.85;;;4.10;;
13173;SDS011;6652;48.802;9.190;2023-10-13T10:16:39;14.60;;;3.25;;
13173;SDS011;6652;48.802;9.190;2023-10-13T10:19:14;11.32;;;3.63;;
13173;SDS011;6652;48.802;9.190;2023-10-13T10:21:43;13.23;;;3.00;;
13173;SDS011;6652;48.802;9.190;2023-10-13T10:24:14;11.98;;;3.75;;
13173;SDS011;6652;48.802;9.190;2023-10-13T10:26:52;9.30;;;3.22;;
13173;SDS011;6652;48.802;9.190;2023-10-13T10:29:21;11.65;;;3.38;;
13173;SDS011;6652;48.802;9.190;2023-10-13T10:31:48;16.15;;;3.88;;
13173;SDS011;6652;48.802;9.190;2023-10-13T10:34:16;19.58;;;3.58;;
13173;SDS011;6652;48.802;9.190;2023-10-13T10:36:46;10.98;;;3.80;;
13173;SDS011;6652;48.802;9.190;2023-10-13T10:39:16;14.63;;;4.10;;
13173;SDS011;6652;48.802;9.190;2023-10-13T10:41:44;11.60;;;3.63;;
13173;SDS011;6652;48.802;9.190;2023-10-13T10:44:17;18.05;;;3.55;;
13173;SDS011;6652;48.802;9.190;2023-10-13T10:47:09;20.17;;;3.77;;
13173;SDS011;6652;48.802;9.190;2023-10-13T10:53:00;13.38;;;3.40;;
13173;SDS011;6652;48.802;9.190;2023-10-13T10:55:33;9.85;;;3.25;;
13173;SDS011;6652;48.802;9.190;2023-10-13T10:58:01;13.35;;;3.45;;
13173;SDS011;6652;48.802;9.190;2023-10-13T11:00:31;10.15;;;3.38;;
13173;SDS011;6652;48.802;9.190;2023-10-13T11:03:12;15.43;;;3.60;;
13173;SDS011;6652;48.802;9.190;2023-10-13T11:05:43;14.55;;;3.42;;
13173;SDS011;6652;48.802;9.190;2023-10-13T11:08:20;13.15;;;3.33;;
13173;SDS011;6652;48.802;9.190;2023-10-13T11:10:52;14.88;;;3.20;;
13173;SDS011;6652;48.802;9.190;2023-10-13T11:13:19;16.92;;;4.28;;
13173;SDS011;6652;48.802;9.190;2023-10-13T11:15:47;14.82;;;4.03;;
13173;SDS011;6652;48.802;9.190;2023-10-13T11:18:17;16.80;;;3.88;;
13173;SDS011;6652;48.802;9.190;2023-10-13T11:20:46;7.45;;;2.95;;
13173;SDS011;6652;48.802;9.190;2023-10-13T11:23:19;9.15;;;3.58;;
13173;SDS011;6652;48.802;9.190;2023-10-13T11:28:58;12.98;;;3.30;;
13173;SDS011;6652;48.802;9.190;2023-10-13T11:31:30;18.02;;;3.47;;
13173;SDS011;6652;48.802;9.190;2023-10-13T11:34:24;14.20;;;3.35;;
13173;SDS011;6652;48.802;9.190;2023-10-13T11:37:01;8.73;;;3.47;;
13173;SDS011;6652;48.802;9.190;2023-10-13T11:39:49;15.02;;;4.13;;
13173;SDS011;6652;48.802;9.190;2023-10-13T11:45:02;13.77;;;4.30;;
13173;SDS011;6652;48.802;9.190;2023-10-13T11:47:49;9.25;;;3.08;;
13173;SDS011;6652;48.802;9.190;2023-10-13T11:53:45;13.75;;;3.22;;
13173;SDS011;6652;48.802;9.190;2023-10-13T11:56:17;7.32;;;2.65;;
13173;SDS011;6652;48.802;9.190;2023-10-13T11:58:50;10.73;;;3.38;;
13173;SDS011;6652;48.802;9.190;2023-10-13T12:01:18;15.88;;;3.50;;
13173;SDS011;6652;48.802;9.190;2023-10-13T12:03:49;16.20;;;3.33;;
13173;SDS011;6652;48.802;9.190;2023-10-13T12:06:33;12.90;;;3.33;;
13173;SDS011;6652;48.802;9.190;2023-10-13T12:09:13;10.02;;;3.42;;
13173;SDS011;6652;48.802;9.190;2023-10-13T12:12:05;16.98;;;3.17;;
13173;SDS011;6652;48.802;9.190;2023-10-13T12:14:34;10.13;;;2.95;;
13173;SDS011;6652;48.802;9.190;2023-10-13T12:17:02;12.02;;;3.50;;
13173;SDS011;6652;48.802;9.190;2023-10-13T12:22:04;9.98;;;2.80;;
13173;SDS011;6652;48.802;9.190;2023-10-13T12:24:35;13.63;;;3.47;;
13173;SDS011;6652;48.802;9.190;2023-10-13T12:27:07;8.07;;;3.40;;
13173;SDS011;6652;48.802;9.190;2023-10-13T12:29:45;11.50;;;3.47;;
13173;SDS011;6652;48.802;9.190;2023-10-13T12:32:12;11.35;;;3.65;;
13173;SDS011;6652;48.802;9.190;2023-10-13T12:34:40;15.02;;;3.40;;
13173;SDS011;6652;48.802;9.190;2023-10-13T12:37:25;16.75;;;3.17;;
13173;SDS011;6652;48.802;9.190;2023-10-13T12:40:14;6.63;;;3.15;;
13173;SDS011;6652;48.802;9.190;2023-10-13T12:43:00;12.57;;;2.80;;
13173;SDS011;6652;48.802;9.190;2023-10-13T12:45:45;13.77;;;3.85;;
13173;SDS011;6652;48.802;9.190;2023-10-13T12:48:31;8.60;;;3.20;;
13173;SDS011;6652;48.802;9.190;2023-10-13T12:51:15;14.32;;;3.72;;
13173;SDS011;6652;48.802;9.190;2023-10-13T12:54:05;10.50;;;3.17;;
13173;SDS011;6652;48.802;9.190;2023-10-13T12:56:40;9.98;;;3.22;;
13173;SDS011;6652;48.802;9.190;2023-10-13T12:59:07;11.38;;;3.42;;
13173;SDS011;6652;48.802;9.190;2023-10-13T13:01:38;9.70;;;3.40;;
13173;SDS011;6652;48.802;9.190;2023-10-13T13:04:07;10.07;;;3.17;;
13173;SDS011;6652;48.802;9.190;2023-10-13T13:06:41;20.05;;;3.15;;
13173;SDS011;6652;48.802;9.190;2023-10-13T13:09:08;10.82;;;3.40;;
13173;SDS011;6652;48.802;9.190;2023-10-13T13:11:35;12.43;;;3.40;;
13173;SDS011;6652;48.802;9.190;2023-10-13T13:14:06;14.18;;;3.30;;
13173;SDS011;6652;48.802;9.190;2023-10-13T13:16:34;6.95;;;3.13;;
13173;SDS011;6652;48.802;9.190;2023-10-13T13:19:04;11.13;;;3.10;;
13173;SDS011;6652;48.802;9.190;2023-10-13T13:21:39;7.03;;;2.83;;
13173;SDS011;6652;48.802;9.190;2023-10-13T13:24:06;7.68;;;3.28;;
13173;SDS011;6652;48.802;9.190;2023-10-13T13:26:36;10.98;;;3.10;;
13173;SDS011;6652;48.802;9.190;2023-10-13T13:29:07;17.80;;;3.72;;
13173;SDS011;6652;48.802;9.190;2023-10-13T13:31:36;11.70;;;2.80;;
13173;SDS011;6652;48.802;9.190;2023-10-13T13:34:06;8.82;;;3.05;;
13173;SDS011;6652;48.802;9.190;2023-10-13T13:36:35;22.90;;;3.92;;
13173;SDS011;6652;48.802;9.190;2023-10-13T13:39:02;16.15;;;2.85;;
13173;SDS011;6652;48.802;9.190;2023-10-13T13:41:31;9.25;;;4.00;;
13173;SDS011;6652;48.802;9.190;2023-10-13T13:43:58;9.10;;;3.22;;
13173;SDS011;6652;48.802;9.190;2023-10-13T13:46:39;15.30;;;3.35;;
13173;SDS011;6652;48.802;9.190;2023-10-13T13:49:09;12.30;;;3.65;;
13173;SDS011;6652;48.802;9.190;2023-10-13T13:51:44;22.40;;;3.22;;
13173;SDS011;6652;48.802;9.190;2023-10-13T13:54:17;16.58;;;3.88;;
13173;SDS011;6652;48.802;9.190;2023-10-13T13:56:44;14.38;;;3.42;;
13173;SDS011;6652;48.802;9.190;2023-10-13T13:59:11;16.63;;;3.92;;
13173;SDS011;6652;48.802;9.190;2023-10-13T14:01:42;14.60;;;3.40;;
13173;SDS011;6652;48.802;9.190;2023-10-13T14:04:10;9.10;;;3.25;;
13173;SDS011;6652;48.802;9.190;2023-10-13T14:06:39;8.95;;;3.22;;
13173;SDS011;6652;48.802;9.190;2023-10-13T14:09:06;9.75;;;3.10;;
13173;SDS011;6652;48.802;9.190;2023-10-13T14:11:43;13.80;;;3.10;;
13173;SDS011;6652;48.802;9.190;2023-10-13T14:14:23;18.33;;;3.22;;
13173;SDS011;6652;48.802;9.190;2023-10-13T14:17:00;10.05;;;2.88;;
13173;SDS011;6652;48.802;9.190;2023-10-13T14:19:33;18.70;;;3.67;;
13173;SDS011;6652;48.802;9.190;2023-10-13T14:22:00;10.43;;;3.28;;
13173;SDS011;6652;48.802;9.190;2023-10-13T14:24:32;15.63;;;3.92;;
13173;SDS011;6652;48.802;9.190;2023-10-13T14:27:00;7.03;;;3.42;;
13173;SDS011;6652;48.802;9.190;2023-10-13T14:29:34;11.45;;;2.75;;
13173;SDS011;6652;48.802;9.190;2023-10-13T14:32:07;9.50;;;3.08;;
13173;SDS011;6652;48.802;9.190;2023-10-13T14:34:37;7.57;;;2.70;;
13173;SDS011;6652;48.802;9.190;2023-10-13T14:37:05;10.30;;;3.15;;
13173;SDS011;6652;48.802;9.190;2023-10-13T14:39:32;9.10;;;3.10;;
13173;SDS011;6652;48.802;9.190;2023-10-13T14:42:01;7.95;;;3.25;;
13173;SDS011;6652;48.802;9.190;2023-10-13T14:44:31;11.38;;;3.20;;
13173;SDS011;6652;48.802;9.190;2023-10-13T14:46:58;10.88;;;3.35;;
13173;SDS011;6652;48.802;9.190;2023-10-13T14:49:28;8.63;;;2.83;;
13173;SDS011;6652;48.802;9.190;2023-10-13T14:51:57;15.10;;;3.28;;
13173;SDS011;6652;48.802;9.190;2023-10-13T14:54:24;14.20;;;3.10;;
13173;SDS011;6652;48.802;9.190;2023-10-13T14:56:59;8.90;;;2.92;;
13173;SDS011;6652;48.802;9.190;2023-10-13T14:59:26;14.38;;;3.28;;
13173;SDS011;6652;48.802;9.190;2023-10-13T15:01:58;11.38;;;3.03;;
13173;SDS011;6652;48.802;9.190;2023-10-13T15:04:28;8.20;;;3.00;;
13173;SDS011;6652;48.802;9.190;2023-10-13T15:06:57;11.90;;;3.05;;
13173;SDS011;6652;48.802;9.190;2023-10-13T15:09:26;9.40;;;2.83;;
13173;SDS011;6652;48.802;9.190;2023-10-13T15:11:53;11.70;;;3.95;;
13173;SDS011;6652;48.802;9.190;2023-10-13T15:14:20;10.23;;;3.22;;
13173;SDS011;6652;48.802;9.190;2023-10-13T15:16:48;11.60;;;2.78;;
13173;SDS011;6652;48.802;9.190;2023-10-13T15:19:17;10.10;;;3.38;;
13173;SDS011;6652;48.802;9.190;2023-10-13T15:21:45;15.68;;;2.97;;
13173;SDS011;6652;48.802;9.190;2023-10-13T15:24:15;10.40;;;3.00;;
13173;SDS011;6652;48.802;9.190;2023-10-13T15:26:43;8.25;;;2.70;;
13173;SDS011;6652;48.802;9.190;2023-10-13T15:29:13;12.55;;;3.08;;
13173;SDS011;6652;48.802;9.190;2023-10-13T15:31:41;8.30;;;2.45;;
13173;SDS011;6652;48.802;9.190;2023-10-13T15:34:23;12.27;;;2.67;;
13173;SDS011;6652;48.802;9.190;2023-10-13T15:36:53;14.15;;;3.38;;
13173;SDS011;6652;48.802;9.190;2023-10-13T15:39:21;7.75;;;2.45;;
13173;SDS011;6652;48.802;9.190;2023-10-13T15:41:50;12.02;;;3.05;;
13173;SDS011;6652;48.802;9.190;2023-10-13T15:44:18;7.88;;;2.70;;
13173;SDS011;6652;48.802;9.190;2023-10-13T15:46:49;10.50;;;2.47;;
13173;SDS011;6652;48.802;9.190;2023-10-13T15:49:20;17.98;;;2.80;;